Time;durP1;ratioP1;P1;durP2;ratioP2;P2;SDS_P1;SDS_P2;PMS_P1;PMS_P2;Temp;Humidity;BMP_temperature;BMP_pressure;BME280_temperature;BME280_humidity;BME280_pressure;Samples;Min_cycle;Max_cycle;Signal;HPM_P1;HPM_P2
2022/05/25 00:02:00;;;;;;;0.32;0.32;;;;;;;24.94;46.64;98755.00;5068773;28;20119;-70
2022/05/25 00:04:26;;;;;;;0.68;0.50;;;;;;;24.93;46.64;98750.59;5069061;28;20071;-70
2022/05/25 00:06:52;;;;;;;0.50;0.40;;;;;;;24.94;46.75;98755.00;5068889;28;20045;-71
2022/05/25 00:09:18;;;;;;;0.60;0.40;;;;;;;24.94;47.03;98749.41;5068956;28;20044;-71
2022/05/25 00:11:44;;;;;;;0.40;0.40;;;;;;;24.94;47.00;98758.59;5068926;28;20040;-70
2022/05/25 00:14:10;;;;;;;0.32;0.30;;;;;;;24.94;46.92;98747.41;5068777;28;20473;-71
2022/05/25 00:16:35;;;;;;;0.40;0.30;;;;;;;24.90;46.93;98741.03;5068885;28;20140;-70
2022/05/25 00:21:45;;;;;;;0.43;0.40;;;;;;;24.91;46.95;98750.22;5072406;28;20562;-70
2022/05/25 00:24:10;;;;;;;0.43;0.32;;;;;;;24.90;46.93;98751.44;5072040;28;20036;-71
2022/05/25 00:26:36;;;;;;;0.68;0.60;;;;;;;24.89;46.57;98761.03;5072302;28;20404;-71
2022/05/25 00:29:03;;;;;;;0.52;0.30;;;;;;;24.88;46.75;98760.25;5072195;28;20045;-70
2022/05/25 00:31:28;;;;;;;0.98;0.57;;;;;;;24.89;46.50;98766.63;5072122;28;20143;-70
2022/05/25 00:33:54;;;;;;;0.77;0.52;;;;;;;24.87;46.46;98769.88;5072062;28;20135;-71
2022/05/25 00:36:19;;;;;;;0.88;0.50;;;;;;;24.86;46.21;98773.06;5072130;28;20094;-70
2022/05/25 00:38:45;;;;;;;0.90;0.60;;;;;;;24.86;46.48;98779.47;5072092;28;20048;-70
2022/05/25 00:41:10;;;;;;;0.63;0.50;;;;;;;24.84;46.45;98792.28;5072079;28;20052;-70
2022/05/25 00:43:37;;;;;;;0.80;0.52;;;;;;;24.84;46.57;98790.25;5071936;28;20126;-71
2022/05/25 00:46:08;;;;;;;0.70;0.50;;;;;;;24.84;46.60;98793.06;5071848;28;20048;-70
2022/05/25 00:48:36;;;;;;;0.60;0.47;;;;;;;24.86;46.39;98795.44;5072030;28;20048;-71
2022/05/25 00:51:12;;;;;;;0.65;0.40;;;;;;;24.85;46.25;98785.47;5071951;28;20395;-70
2022/05/25 00:53:40;;;;;;;0.90;0.60;;;;;;;24.87;46.33;98772.66;5071832;28;20070;-71
2022/05/25 00:56:08;;;;;;;0.63;0.45;;;;;;;24.85;46.15;98771.47;5071933;28;20076;-71
2022/05/25 00:58:37;;;;;;;0.60;0.50;;;;;;;24.87;46.17;98775.47;5071703;28;20081;-70
2022/05/25 01:01:04;;;;;;;0.73;0.47;;;;;;;24.88;46.04;98782.63;5071829;28;20068;-70
2022/05/25 01:03:29;;;;;;;0.82;0.50;;;;;;;24.87;45.97;98778.25;5071717;28;20051;-70
2022/05/25 01:06:00;;;;;;;0.65;0.50;;;;;;;24.88;46.19;98784.63;5071452;28;20049;-70
2022/05/25 01:08:39;;;;;;;0.50;0.35;;;;;;;24.86;45.88;98785.06;5071622;28;20044;-69
2022/05/25 01:11:05;;;;;;;0.82;0.47;;;;;;;24.86;45.87;98778.66;5071475;28;20076;-69
2022/05/25 01:14:14;;;;;;;0.50;0.40;;;;;;;24.83;45.97;98776.69;5071411;28;20424;-69
2022/05/25 01:16:58;;;;;;;0.55;0.50;;;;;;;24.83;45.76;98779.50;5062183;28;20048;-69
2022/05/25 01:19:48;;;;;;;0.60;0.43;;;;;;;24.80;45.78;98775.53;5071324;28;20045;-69
2022/05/25 01:22:50;;;;;;;1.25;0.50;;;;;;;24.79;45.80;98770.34;5071591;28;20055;-69
2022/05/25 01:25:34;;;;;;;0.50;0.40;;;;;;;24.78;45.69;98771.56;5071402;28;20093;-69
2022/05/25 01:28:28;;;;;;;0.43;0.40;;;;;;;24.77;45.76;98778.38;5071202;28;20048;-69
2022/05/25 01:30:56;;;;;;;0.50;0.40;;;;;;;24.78;45.84;98783.53;5069877;28;20065;-69
2022/05/25 01:33:38;;;;;;;2.50;0.35;;;;;;;24.71;45.82;98770.41;5070944;28;20605;-69
2022/05/25 01:36:12;;;;;;;0.68;0.43;;;;;;;24.75;45.87;98770.41;5071249;28;20048;-69
2022/05/25 01:39:01;;;;;;;0.80;0.50;;;;;;;24.76;45.76;98779.56;5071127;28;20063;-69
2022/05/25 01:41:39;;;;;;;0.43;0.40;;;;;;;24.73;45.71;98786.03;5071115;28;20047;-69
2022/05/25 01:44:10;;;;;;;0.57;0.50;;;;;;;24.76;45.84;98793.56;5070341;28;20139;-69
2022/05/25 01:46:42;;;;;;;0.35;0.32;;;;;;;24.73;45.83;98797.22;5071073;28;20128;-69
2022/05/25 01:49:12;;;;;;;0.90;0.50;;;;;;;24.74;45.78;98804.38;5071049;28;20044;-69
2022/05/25 01:51:46;;;;;;;1.77;0.50;;;;;;;24.72;45.89;98796.41;5070948;28;20551;-69
2022/05/25 01:54:16;;;;;;;0.50;0.40;;;;;;;24.70;45.58;98796.81;5070900;28;20575;-69
2022/05/25 01:56:49;;;;;;;0.70;0.57;;;;;;;24.70;45.50;98794.00;5070770;28;20052;-69
2022/05/25 01:59:18;;;;;;;0.60;0.50;;;;;;;24.73;45.72;98808.38;5070901;28;20048;-69
2022/05/25 02:04:19;;;;;;;0.57;0.40;;;;;;;24.73;45.52;98800.78;5070870;28;20041;-69
2022/05/25 02:04:38;;;;;;;0.63;0.30;;;;;;;24.70;45.42;98804.41;5070660;28;20157;-69
2022/05/25 02:07:48;;;;;;;0.30;0.30;;;;;;;24.71;45.29;98825.56;5070718;28;20076;-69
2022/05/25 02:10:23;;;;;;;0.30;0.30;;;;;;;24.68;45.39;98818.81;5008446;28;20094;-70
2022/05/25 02:13:18;;;;;;;0.30;0.30;;;;;;;24.67;45.29;98820.03;5008520;28;20152;-70
2022/05/25 02:16:03;;;;;;;0.52;0.30;;;;;;;24.67;45.15;98810.84;5008437;28;20458;-70
2022/05/25 02:19:05;;;;;;;0.55;0.40;;;;;;;24.67;44.91;98819.22;5008278;28;20058;-70
2022/05/25 02:21:51;;;;;;;0.73;0.40;;;;;;;24.67;44.90;98824.81;4989972;28;20505;-70
2022/05/25 02:24:25;;;;;;;1.20;0.20;;;;;;;24.69;44.84;98831.59;5000865;28;20050;-70
2022/05/25 02:26:54;;;;;;;0.50;0.40;;;;;;;24.68;44.86;98832.00;5008183;28;20053;-70
2022/05/25 02:29:23;;;;;;;0.30;0.30;;;;;;;24.67;45.03;98831.22;5008060;28;20104;-70
2022/05/25 02:32:03;;;;;;;0.70;0.50;;;;;;;24.66;45.17;98835.22;4970952;28;20140;-70
2022/05/25 02:34:28;;;;;;;0.45;0.30;;;;;;;24.65;44.80;98847.63;4988513;28;20054;-70
2022/05/25 02:36:56;;;;;;;0.50;0.30;;;;;;;24.65;44.94;98844.81;4988655;28;20066;-69
2022/05/25 02:39:22;;;;;;;0.38;0.38;;;;;;;24.65;44.95;98842.03;4988697;28;20046;-69
2022/05/25 02:41:54;;;;;;;0.45;0.30;;;;;;;24.66;44.82;98848.41;5038457;28;20127;-69
2022/05/25 02:44:20;;;;;;;0.27;0.27;;;;;;;24.64;44.67;98837.63;5050023;28;20037;-69
2022/05/25 02:46:47;;;;;;;0.55;0.30;;;;;;;24.65;44.76;98835.63;5049837;28;20044;-69
2022/05/25 02:49:12;;;;;;;0.30;0.30;;;;;;;24.65;44.71;98844.03;5041727;28;20139;-69
2022/05/25 02:51:38;;;;;;;1.40;0.40;;;;;;;24.65;44.89;98852.41;5050211;28;20198;-69
2022/05/25 02:54:06;;;;;;;0.57;0.40;;;;;;;24.64;44.61;98851.59;5050022;28;20619;-69
2022/05/25 02:56:32;;;;;;;0.40;0.30;;;;;;;24.63;44.71;98849.22;5053306;28;20124;-68
2022/05/25 02:58:57;;;;;;;0.28;0.28;;;;;;;24.65;44.79;98856.00;5056496;28;20061;-69
2022/05/25 03:01:23;;;;;;;0.38;0.30;;;;;;;24.64;44.06;98859.19;5055797;28;20037;-69
2022/05/25 03:03:48;;;;;;;0.50;0.30;;;;;;;24.64;44.09;98864.78;5054489;28;20461;-68
2022/05/25 03:06:13;;;;;;;0.28;0.28;;;;;;;24.63;44.25;98854.81;5049804;28;20577;-69
2022/05/25 03:08:41;;;;;;;0.50;0.35;;;;;;;24.64;43.46;98857.19;5049820;28;20487;-69
2022/05/25 03:11:07;;;;;;;0.68;0.38;;;;;;;24.64;43.38;98854.41;5049759;28;20075;-69
2022/05/25 03:13:32;;;;;;;0.35;0.30;;;;;;;24.62;43.45;98844.84;5049432;28;20094;-69
2022/05/25 03:16:02;;;;;;;0.30;0.30;;;;;;;24.64;43.55;98856.41;5049676;28;20045;-69
2022/05/25 03:18:28;;;;;;;0.30;0.30;;;;;;;24.64;43.56;98856.41;5049656;28;20127;-69
2022/05/25 03:20:53;;;;;;;0.25;0.25;;;;;;;24.62;43.44;98865.22;5049679;28;20457;-69
2022/05/25 03:23:19;;;;;;;0.30;0.20;;;;;;;24.62;43.21;98873.59;5049616;28;20052;-69
2022/05/25 03:25:48;;;;;;;0.50;0.30;;;;;;;24.60;42.97;98862.03;5049771;28;20037;-69
2022/05/25 03:28:14;;;;;;;0.63;0.30;;;;;;;24.62;42.65;98870.81;5049679;28;20069;-69
2022/05/25 03:30:42;;;;;;;0.43;0.30;;;;;;;24.63;42.93;98868.78;5049433;28;20048;-69
2022/05/25 03:33:08;;;;;;;0.35;0.20;;;;;;;24.62;42.56;98884.78;5049223;28;20059;-69
2022/05/25 03:35:34;;;;;;;0.25;0.20;;;;;;;24.62;42.81;98876.41;5049483;28;20045;-69
2022/05/25 03:38:01;;;;;;;0.30;0.20;;;;;;;24.61;42.79;98880.41;5049383;28;20102;-69
2022/05/25 03:40:27;;;;;;;0.43;0.20;;;;;;;24.61;42.53;98885.22;5049276;28;20041;-69
2022/05/25 03:42:52;;;;;;;0.45;0.40;;;;;;;24.61;42.54;98886.00;5048762;28;20361;-69
2022/05/25 03:45:19;;;;;;;0.43;0.30;;;;;;;24.60;42.74;98889.22;5048624;28;20053;-69
2022/05/25 03:47:44;;;;;;;0.40;0.30;;;;;;;24.59;42.73;98890.44;5048855;28;20489;-69
2022/05/25 03:50:10;;;;;;;0.85;0.40;;;;;;;24.57;42.80;98896.41;5048640;28;20055;-69
2022/05/25 03:52:36;;;;;;;0.30;0.20;;;;;;;24.58;42.89;98889.63;5049940;28;20037;-69
2022/05/25 03:55:03;;;;;;;1.40;0.40;;;;;;;24.55;42.71;98892.44;5052442;28;20560;-69
2022/05/25 03:57:29;;;;;;;0.40;0.30;;;;;;;24.56;42.75;98894.81;5052550;28;20075;-69
2022/05/25 03:59:54;;;;;;;0.63;0.30;;;;;;;24.57;42.24;98902.00;5052622;28;20072;-69
2022/05/25 04:02:20;;;;;;;0.30;0.20;;;;;;;24.58;42.00;98902.81;5052693;28;20056;-69
2022/05/25 04:04:45;;;;;;;0.47;0.30;;;;;;;24.56;41.69;98900.41;5052573;28;20090;-69
2022/05/25 04:07:11;;;;;;;0.50;0.30;;;;;;;24.56;41.66;98905.22;5052503;28;20049;-69
2022/05/25 04:09:36;;;;;;;0.43;0.30;;;;;;;24.56;41.20;98902.41;5052353;28;20045;-69
2022/05/25 04:12:02;;;;;;;0.35;0.35;;;;;;;24.56;41.11;98903.22;5052316;28;20037;-69
2022/05/25 04:14:28;;;;;;;0.20;0.20;;;;;;;24.58;40.92;98903.63;5052199;28;20063;-69
2022/05/25 04:16:53;;;;;;;0.50;0.30;;;;;;;24.58;40.83;98903.63;5051752;28;20049;-70
2022/05/25 04:19:18;;;;;;;0.60;0.30;;;;;;;24.58;40.75;98895.22;5052291;28;20097;-70
2022/05/25 04:21:44;;;;;;;0.35;0.20;;;;;;;24.57;41.18;98896.41;5052271;28;20049;-70
2022/05/25 04:24:12;;;;;;;0.20;0.20;;;;;;;24.57;41.21;98902.00;5052056;28;20527;-70
2022/05/25 04:26:38;;;;;;;0.25;0.25;;;;;;;24.53;41.28;98900.47;5052078;28;20052;-69
2022/05/25 04:29:04;;;;;;;0.43;0.30;;;;;;;24.55;40.86;98907.22;5051969;28;20408;-69
2022/05/25 04:31:29;;;;;;;0.30;0.30;;;;;;;24.54;40.38;98911.22;5052058;28;20045;-69
2022/05/25 04:33:55;;;;;;;0.43;0.30;;;;;;;24.54;41.02;98902.84;5052211;28;20048;-69
2022/05/25 04:36:20;;;;;;;0.20;0.20;;;;;;;24.56;41.09;98916.41;5051774;28;20049;-69
2022/05/25 04:38:46;;;;;;;0.20;0.20;;;;;;;24.55;41.19;98920.41;5051927;28;20136;-69
2022/05/25 04:41:11;;;;;;;0.20;0.20;;;;;;;24.55;41.07;98920.41;5052128;28;20052;-69
2022/05/25 04:43:37;;;;;;;0.30;0.30;;;;;;;24.55;41.26;98929.59;5052217;28;20076;-69
2022/05/25 04:46:11;;;;;;;0.20;0.20;;;;;;;24.54;41.50;98938.41;5034035;28;20045;-69
2022/05/25 04:48:37;;;;;;;0.47;0.20;;;;;;;24.54;40.87;98941.19;5051630;28;20045;-69
2022/05/25 04:51:03;;;;;;;0.40;0.30;;;;;;;24.55;40.63;98939.97;5051539;28;20060;-69
2022/05/25 04:53:29;;;;;;;0.68;0.20;;;;;;;24.55;40.24;98937.19;5051553;28;20528;-69
2022/05/25 04:58:41;;;;;;;0.35;0.30;;;;;;;24.55;39.95;98939.97;5049705;28;20056;-68
2022/05/25 05:01:09;;;;;;;0.45;0.30;;;;;;;24.58;39.68;98945.56;5051800;28;20076;-69
2022/05/25 05:03:35;;;;;;;0.77;0.30;;;;;;;24.58;40.10;98944.75;5051068;28;20053;-69
2022/05/25 05:06:01;;;;;;;0.20;0.20;;;;;;;24.58;40.28;98947.56;5051227;28;20053;-69
2022/05/25 05:08:27;;;;;;;0.63;0.40;;;;;;;24.57;40.85;98943.16;5051400;28;20041;-69
2022/05/25 05:10:53;;;;;;;0.73;0.40;;;;;;;24.58;40.25;98953.94;5051274;28;20049;-69
2022/05/25 05:13:20;;;;;;;0.35;0.30;;;;;;;24.59;40.71;98951.94;5051219;28;20116;-68
2022/05/25 05:15:49;;;;;;;0.43;0.35;;;;;;;24.58;40.09;98942.75;5051456;28;20049;-75
2022/05/25 05:18:15;;;;;;;0.65;0.30;;;;;;;24.58;40.67;98948.34;5051231;28;20421;-71
2022/05/25 05:20:40;;;;;;;0.40;0.20;;;;;;;24.59;40.34;98949.16;5051374;28;20045;-63
2022/05/25 05:23:06;;;;;;;0.30;0.28;;;;;;;24.56;40.24;98956.34;5051141;28;20052;-69
2022/05/25 05:25:33;;;;;;;0.45;0.30;;;;;;;24.56;39.91;98959.13;5051353;28;20045;-70
2022/05/25 05:28:15;;;;;;;0.65;0.32;;;;;;;24.59;39.93;98966.72;5049335;28;20566;-70
2022/05/25 05:30:48;;;;;;;2.33;0.23;;;;;;;24.59;39.43;98972.31;5050989;28;20037;-70
2022/05/25 05:33:13;;;;;;;1.00;0.30;;;;;;;24.59;39.57;98969.50;5050851;28;20506;-70
2022/05/25 05:35:39;;;;;;;0.80;0.40;;;;;;;24.58;39.45;98969.94;5050994;28;20501;-70
2022/05/25 05:38:06;;;;;;;0.75;0.30;;;;;;;24.56;39.62;98970.31;5050926;28;20460;-70
2022/05/25 05:40:32;;;;;;;2.92;0.25;;;;;;;24.60;39.47;98968.31;5051180;28;20055;-70
2022/05/25 05:43:01;;;;;;;0.90;0.20;;;;;;;24.61;39.30;98975.47;5051010;28;20151;-70
2022/05/25 05:45:29;;;;;;;0.15;0.15;;;;;;;24.62;39.04;98981.88;5051163;28;20048;-70
2022/05/25 05:48:20;;;;;;;0.52;0.30;;;;;;;24.61;38.96;98981.06;5051115;28;20053;-70
2022/05/25 05:50:49;;;;;;;0.38;0.25;;;;;;;24.62;38.87;98979.88;5048974;28;20051;-70
2022/05/25 05:53:15;;;;;;;0.98;0.30;;;;;;;24.61;38.92;98986.66;5050750;28;20052;-70
2022/05/25 05:55:42;;;;;;;0.28;0.28;;;;;;;24.63;38.74;98987.03;5050780;28;20053;-70
2022/05/25 05:58:08;;;;;;;0.65;0.32;;;;;;;24.63;38.71;98998.22;5050622;28;20528;-70
2022/05/25 06:00:33;;;;;;;0.20;0.20;;;;;;;24.63;38.74;99001.03;5050481;28;20053;-70
2022/05/25 06:02:59;;;;;;;0.17;0.17;;;;;;;24.67;38.95;99004.59;5049823;28;20045;-70
2022/05/25 06:05:25;;;;;;;0.45;0.30;;;;;;;24.70;38.41;99000.97;5050726;28;20098;-70
2022/05/25 06:07:51;;;;;;;0.38;0.20;;;;;;;24.70;38.76;99012.16;5050731;28;20041;-70
2022/05/25 06:10:16;;;;;;;0.55;0.20;;;;;;;24.72;38.85;99014.56;5050447;28;20045;-70
2022/05/25 06:12:42;;;;;;;0.30;0.20;;;;;;;24.74;38.68;99011.34;5050292;28;20398;-70
2022/05/25 06:20:36;;;;;;;0.38;0.20;;;;;;;24.76;38.44;99018.13;5050548;28;20510;-70
2022/05/25 06:23:02;;;;;;;0.22;0.20;;;;;;;24.77;38.53;99025.28;5050360;28;20041;-70
2022/05/25 06:25:28;;;;;;;0.10;0.10;;;;;;;24.82;38.65;99026.88;5050486;28;20060;-70
2022/05/25 06:27:55;;;;;;;0.30;0.20;;;;;;;24.83;38.37;99025.66;5050659;28;20425;-70
2022/05/25 06:30:20;;;;;;;1.65;0.35;;;;;;;24.86;38.10;99033.22;5050610;28;20049;-70
2022/05/25 06:32:46;;;;;;;0.98;0.40;;;;;;;24.84;38.52;99030.03;5049824;28;20433;-70
2022/05/25 06:35:11;;;;;;;0.20;0.20;;;;;;;24.86;38.09;99036.00;5050205;28;20130;-70
2022/05/25 06:37:36;;;;;;;0.17;0.17;;;;;;;24.85;38.41;99040.81;5049829;28;20045;-70
2022/05/25 06:40:03;;;;;;;0.30;0.30;;;;;;;24.87;38.53;99041.22;5050250;28;20053;-70
2022/05/25 06:42:28;;;;;;;0.60;0.30;;;;;;;24.88;38.97;99039.22;5047083;28;20055;-70
2022/05/25 06:44:54;;;;;;;0.80;0.40;;;;;;;24.91;39.23;99044.78;5058322;28;20045;-64
2022/05/25 06:47:20;;;;;;;3.17;0.40;;;;;;;24.91;38.28;99043.97;5068946;28;20037;-64
2022/05/25 06:49:45;;;;;;;3.38;0.60;;;;;;;24.77;38.17;99044.09;5067236;28;20061;-64
2022/05/25 06:52:12;;;;;;;2.53;0.60;;;;;;;24.66;38.30;99042.16;5064952;28;20124;-65
2022/05/25 06:54:38;;;;;;;1.85;0.50;;;;;;;24.65;38.51;99053.78;5067101;28;20048;-64
2022/05/25 06:57:03;;;;;;;3.53;0.55;;;;;;;24.67;37.71;99062.53;5069212;28;20090;-64
2022/05/25 06:59:29;;;;;;;3.70;0.60;;;;;;;24.61;37.34;99064.97;5053067;28;20091;-64
2022/05/25 07:01:54;;;;;;;1.27;0.45;;;;;;;24.47;38.06;99058.66;5066326;28;20037;-64
2022/05/25 07:04:19;;;;;;;2.30;0.60;;;;;;;24.42;38.04;99059.88;5066543;28;20058;-70
2022/05/25 07:06:45;;;;;;;3.75;0.60;;;;;;;24.34;38.44;99061.13;5043001;28;20092;-63
2022/05/25 07:09:12;;;;;;;3.60;0.82;;;;;;;24.31;37.99;99061.91;5059848;28;20767;-63
2022/05/25 07:11:38;;;;;;;1.92;0.70;;;;;;;24.30;38.50;99063.13;5054636;28;20040;-62
2022/05/25 07:14:05;;;;;;;2.38;0.60;;;;;;;24.35;38.29;99063.50;5042411;28;20598;-63
2022/05/25 07:16:31;;;;;;;3.45;1.00;;;;;;;24.32;38.45;99074.69;5049707;28;20060;-63
2022/05/25 07:18:58;;;;;;;3.72;0.60;;;;;;;24.30;38.45;99077.91;5051921;28;20132;-63
2022/05/25 07:21:28;;;;;;;2.00;0.70;;;;;;;24.32;38.25;99067.09;5047702;28;20497;-63
2022/05/25 07:23:56;;;;;;;2.25;0.65;;;;;;;24.28;38.29;99079.50;5058568;28;20072;-63
2022/05/25 07:26:23;;;;;;;2.53;0.70;;;;;;;24.28;38.50;99085.88;5059816;28;20444;-63
2022/05/25 07:28:51;;;;;;;1.20;0.47;;;;;;;24.37;38.39;99096.66;5057939;28;20129;-63
2022/05/25 07:31:16;;;;;;;2.95;0.65;;;;;;;24.47;38.45;99092.22;5062540;28;20079;-63
2022/05/25 07:33:44;;;;;;;3.97;0.50;;;;;;;24.57;38.35;99082.97;5058758;28;20085;-63
2022/05/25 07:36:10;;;;;;;1.58;0.60;;;;;;;24.63;37.91;99092.53;5058235;28;20049;-63
2022/05/25 07:38:41;;;;;;;1.48;0.47;;;;;;;24.67;37.50;99085.72;5063730;28;20449;-64
2022/05/25 07:41:07;;;;;;;2.90;0.70;;;;;;;24.56;37.16;99084.97;5059061;28;20048;-69
2022/05/25 07:43:34;;;;;;;2.97;0.70;;;;;;;24.49;37.35;99087.81;5061075;28;20074;-68
2022/05/25 07:45:59;;;;;;;2.30;0.70;;;;;;;24.44;37.78;99085.44;5060677;28;20040;-67
2022/05/25 07:48:25;;;;;;;2.95;0.85;;;;;;;24.43;38.06;99083.84;5055427;28;20040;-67
2022/05/25 07:50:51;;;;;;;4.32;0.73;;;;;;;24.40;38.60;99085.44;5056111;28;21741;-66
2022/05/25 07:56:03;;;;;;;4.88;0.82;;;;;;;24.49;38.79;99085.00;5058086;28;20073;-71
2022/05/25 07:58:30;;;;;;;4.95;0.80;;;;;;;24.53;39.26;99085.78;5055615;28;20071;-68
2022/05/25 08:00:58;;;;;;;2.65;0.63;;;;;;;24.59;39.21;99097.34;5063152;28;20071;-69
2022/05/25 08:06:09;;;;;;;5.93;0.43;;;;;;;24.66;39.16;99095.31;5058063;28;20790;-64
2022/05/25 08:08:35;;;;;;;1.30;0.60;;;;;;;24.71;39.11;99096.84;5059799;28;20059;-63
2022/05/25 08:11:06;;;;;;;1.20;0.47;;;;;;;24.73;39.16;99099.28;5067864;28;20072;-63
2022/05/25 08:13:35;;;;;;;1.27;0.50;;;;;;;24.70;39.51;99106.47;5056846;28;20033;-63
2022/05/25 08:16:02;;;;;;;0.60;0.32;;;;;;;24.74;39.46;99104.44;5052337;28;20098;-63
2022/05/25 08:18:27;;;;;;;0.73;0.30;;;;;;;24.78;39.73;99105.22;5048300;28;20424;-69
2022/05/25 08:20:52;;;;;;;2.40;0.63;;;;;;;24.79;39.64;99094.81;5031439;28;20079;-69
2022/05/25 08:23:18;;;;;;;2.70;0.47;;;;;;;24.82;39.30;99102.41;5035932;28;20517;-69
2022/05/25 08:25:45;;;;;;;2.33;0.40;;;;;;;24.83;39.30;99101.97;5053288;28;20064;-69
2022/05/25 08:28:11;;;;;;;0.88;0.40;;;;;;;24.81;39.56;99101.59;5051772;28;20052;-69
2022/05/25 08:30:39;;;;;;;1.75;0.57;;;;;;;24.81;39.50;99109.19;5060760;28;20041;-69
2022/05/25 08:33:05;;;;;;;3.10;0.80;;;;;;;24.85;39.32;99101.56;5052187;28;20045;-67
2022/05/25 08:35:31;;;;;;;1.23;0.40;;;;;;;24.82;39.55;99102.41;5051885;28;20098;-68
2022/05/25 08:37:57;;;;;;;2.47;0.50;;;;;;;24.84;39.38;99111.16;5043947;28;20098;-69
2022/05/25 08:40:24;;;;;;;4.50;2.85;;;;;;;24.87;39.59;99115.97;5051964;28;20048;-71
2022/05/25 08:42:52;;;;;;;4.28;2.10;;;;;;;24.88;39.55;99104.34;5055883;28;20120;-69
2022/05/25 08:45:18;;;;;;;5.72;2.50;;;;;;;24.86;39.50;99114.34;5060405;28;20068;-68
2022/05/25 08:47:52;;;;;;;3.00;1.80;;;;;;;24.86;39.49;99109.56;5057418;28;20041;-69
2022/05/25 08:50:17;;;;;;;3.63;1.95;;;;;;;24.89;40.24;99116.34;5055882;28;20049;-68
2022/05/25 08:52:44;;;;;;;2.70;1.65;;;;;;;24.95;40.02;99109.09;5055487;28;20048;-67
2022/05/25 08:55:16;;;;;;;2.60;1.23;;;;;;;24.98;40.21;99111.06;5062025;28;20048;-66
2022/05/25 08:57:48;;;;;;;1.90;1.20;;;;;;;24.99;40.13;99099.47;5063773;28;20048;-66
2022/05/25 09:00:17;;;;;;;4.88;1.27;;;;;;;25.12;40.12;99093.41;5063318;28;20123;-66
2022/05/25 09:02:57;;;;;;;3.53;1.30;;;;;;;25.13;39.99;99100.59;5055205;28;20475;-66
2022/05/25 09:05:47;;;;;;;3.58;1.23;;;;;;;25.12;40.43;99099.81;5053480;28;20086;-66
2022/05/25 09:08:40;;;;;;;2.00;0.90;;;;;;;25.12;40.58;99099.81;5052377;28;20052;-67
2022/05/25 09:11:54;;;;;;;4.28;1.23;;;;;;;25.16;40.54;99097.78;5051877;28;20048;-67
2022/05/25 09:14:44;;;;;;;3.90;1.10;;;;;;;25.21;40.39;99096.53;5051784;28;20360;-66
2022/05/25 09:17:19;;;;;;;1.77;1.00;;;;;;;25.21;40.88;99096.53;5054600;28;20131;-67
2022/05/25 09:19:47;;;;;;;4.70;0.80;;;;;;;25.22;40.85;99096.13;5060267;28;20284;-67
2022/05/25 09:22:19;;;;;;;2.03;0.90;;;;;;;25.24;40.65;99104.13;5055569;28;20045;-67
2022/05/25 09:24:45;;;;;;;2.30;1.15;;;;;;;25.25;40.92;99100.09;5058923;28;20041;-68
2022/05/25 09:27:12;;;;;;;1.30;0.80;;;;;;;25.27;40.95;99096.88;5066001;28;20420;-66
2022/05/25 09:29:40;;;;;;;2.97;0.70;;;;;;;25.27;40.57;99092.09;5060393;28;20110;-66
2022/05/25 09:32:33;;;;;;;1.02;0.60;;;;;;;25.23;40.49;99100.53;5058315;28;20048;-65
2022/05/25 09:35:20;;;;;;;2.45;0.68;;;;;;;25.21;40.93;99090.94;5050459;28;20037;-64
2022/05/25 09:37:49;;;;;;;1.85;0.70;;;;;;;25.21;40.98;99100.13;5059846;28;20059;-65
2022/05/25 09:40:23;;;;;;;1.27;0.75;;;;;;;25.26;40.77;99104.50;5051830;28;20146;-65
2022/05/25 09:42:51;;;;;;;1.15;0.65;;;;;;;25.26;40.58;99107.28;5055429;28;20063;-64
2022/05/25 09:45:17;;;;;;;0.93;0.50;;;;;;;25.29;40.84;99100.88;5056318;28;20076;-64
2022/05/25 09:47:46;;;;;;;0.80;0.50;;;;;;;25.33;40.51;99104.44;5049845;28;20619;-64
2022/05/25 09:50:36;;;;;;;1.00;0.60;;;;;;;25.34;40.35;99102.44;5052193;28;20048;-64
2022/05/25 09:53:07;;;;;;;0.85;0.52;;;;;;;25.35;40.35;99109.63;5053911;28;20053;-64
2022/05/25 09:56:04;;;;;;;1.13;0.50;;;;;;;25.37;40.32;99101.63;5060202;28;20044;-64
2022/05/25 09:58:45;;;;;;;1.77;0.47;;;;;;;25.38;40.18;99106.00;5050658;28;20043;-65
2022/05/25 10:01:27;;;;;;;0.73;0.40;;;;;;;25.38;40.48;99106.00;5059829;28;20079;-64
2022/05/25 10:03:53;;;;;;;5.57;0.80;;;;;;;25.37;40.16;99104.41;5054833;28;20041;-63
2022/05/25 10:06:31;;;;;;;1.10;0.45;;;;;;;25.44;40.17;99110.75;5061529;28;20037;-64
2022/05/25 10:09:12;;;;;;;2.47;0.40;;;;;;;25.49;39.84;99106.69;5064060;28;20048;-65
2022/05/25 10:11:52;;;;;;;0.80;0.47;;;;;;;25.51;40.13;99107.09;5066915;28;20060;-64
2022/05/25 10:14:28;;;;;;;0.65;0.30;;;;;;;25.55;39.89;99107.84;5063205;28;20056;-65
2022/05/25 10:17:10;;;;;;;0.85;0.40;;;;;;;25.57;39.78;99101.81;5061523;28;20045;-64
2022/05/25 10:19:49;;;;;;;1.05;0.55;;;;;;;25.60;39.73;99104.59;5066948;28;20047;-64
2022/05/25 10:22:48;;;;;;;1.38;0.70;;;;;;;25.64;39.88;99104.53;5070008;28;20086;-63
2022/05/25 10:25:36;;;;;;;2.45;0.85;;;;;;;25.61;39.81;99100.56;5065252;28;20661;-65
2022/05/25 10:28:09;;;;;;;2.50;1.00;;;;;;;25.65;39.80;99095.75;5062671;28;20182;-65
2022/05/25 10:36:47;;;;;;;1.75;0.77;;;;;;;25.64;39.18;99102.53;5051815;28;20059;-65
2022/05/25 10:39:29;;;;;;;1.08;0.65;;;;;;;25.66;39.10;99096.53;5057472;28;20696;-65
2022/05/25 10:42:26;;;;;;;1.15;0.60;;;;;;;25.66;38.98;99100.13;5045290;28;20052;-65
2022/05/25 10:45:12;;;;;;;1.88;0.70;;;;;;;25.58;39.38;99101.41;5049965;28;20044;-65
2022/05/25 10:47:54;;;;;;;1.30;0.60;;;;;;;25.60;39.30;99098.19;5062224;28;20421;-65
2022/05/25 10:50:30;;;;;;;1.30;0.60;;;;;;;25.64;39.17;99101.75;5048773;28;21235;-65
2022/05/25 10:53:20;;;;;;;2.15;0.50;;;;;;;25.59;39.10;99094.59;5061328;28;20515;-72
2022/05/25 10:55:48;;;;;;;1.42;0.60;;;;;;;25.71;39.02;99093.25;5042802;28;20047;-72
2022/05/25 10:58:33;;;;;;;0.60;0.50;;;;;;;25.67;38.86;99095.31;5036846;28;20056;-72
2022/05/25 11:01:02;;;;;;;4.38;0.50;;;;;;;25.67;38.74;99096.13;5058642;28;20040;-77
2022/05/25 11:03:34;;;;;;;0.90;0.50;;;;;;;25.73;38.79;99094.50;5039325;28;20041;-77
2022/05/25 11:06:24;;;;;;;1.45;0.70;;;;;;;25.68;38.67;99086.50;5032485;28;20048;-76
2022/05/25 11:09:12;;;;;;;1.95;0.65;;;;;;;25.73;38.64;99088.09;5049773;28;20056;-77
2022/05/25 11:12:10;;;;;;;1.30;0.52;;;;;;;25.71;38.05;99094.06;5048349;28;20045;-76
2022/05/25 11:14:51;;;;;;;2.70;0.70;;;;;;;25.63;37.81;99095.34;5054590;28;20045;-77
2022/05/25 11:17:46;;;;;;;1.88;0.90;;;;;;;25.58;37.76;99086.63;5058046;28;20052;-77
2022/05/25 11:20:39;;;;;;;2.03;0.43;;;;;;;25.53;37.85;99096.25;5069414;28;20807;-64
2022/05/25 11:23:28;;;;;;;2.33;0.50;;;;;;;25.58;37.64;99098.63;5062611;28;20058;-64
2022/05/25 11:26:00;;;;;;;5.72;0.60;;;;;;;25.67;37.39;99095.31;5049151;28;20079;-64
2022/05/25 11:28:49;;;;;;;3.40;0.70;;;;;;;25.66;37.08;99094.53;5055331;28;20427;-63
2022/05/25 11:31:47;;;;;;;2.33;0.60;;;;;;;25.69;37.36;99104.09;5024430;28;20060;-64
2022/05/25 11:34:45;;;;;;;1.42;0.60;;;;;;;25.71;37.19;99101.66;5067367;28;20040;-63
2022/05/25 11:37:26;;;;;;;1.27;0.60;;;;;;;25.65;37.37;99108.97;5054421;28;20057;-63
2022/05/25 11:40:23;;;;;;;1.63;0.60;;;;;;;25.70;37.13;99111.28;5057223;28;20045;-64
2022/05/25 11:43:22;;;;;;;6.97;4.38;;;;;;;25.71;37.12;99105.25;5062789;28;20049;-64
2022/05/25 11:46:02;;;;;;;11.45;7.00;;;;;;;25.73;36.67;99108.50;5060392;28;20410;-64
2022/05/25 11:49:06;;;;;;;12.93;5.18;;;;;;;25.69;37.04;99115.31;5063884;28;20036;-64
2022/05/25 11:51:52;;;;;;;6.88;3.65;;;;;;;25.73;36.95;99104.91;5066405;28;20456;-64
2022/05/25 11:54:43;;;;;;;4.20;2.60;;;;;;;25.70;36.84;99108.50;5059256;28;20059;-64
2022/05/25 11:57:27;;;;;;;8.75;2.53;;;;;;;25.70;37.09;99108.50;5065594;28;20059;-63
2022/05/25 12:00:08;;;;;;;3.58;1.80;;;;;;;25.67;36.83;99112.94;5067025;28;20076;-64
2022/05/25 12:02:52;;;;;;;3.63;1.50;;;;;;;25.67;37.08;99118.53;5067803;28;20047;-64
2022/05/25 12:05:44;;;;;;;2.85;1.35;;;;;;;25.64;37.69;99122.13;5067217;28;20057;-68
2022/05/25 12:08:28;;;;;;;2.30;1.00;;;;;;;25.52;38.27;99120.66;5064931;28;20059;-67
2022/05/25 12:11:10;;;;;;;2.80;1.10;;;;;;;25.51;38.42;99121.88;5064423;28;20036;-65
2022/05/25 12:13:40;;;;;;;4.20;1.20;;;;;;;25.48;38.69;99127.50;5066278;28;20045;-66
2022/05/25 12:16:31;;;;;;;3.05;0.90;;;;;;;25.43;39.03;99119.53;5057714;28;20420;-67
2022/05/25 12:19:21;;;;;;;2.63;1.00;;;;;;;25.43;38.97;99128.75;5061700;28;20056;-67
2022/05/25 12:22:04;;;;;;;2.67;0.90;;;;;;;25.40;38.94;99123.97;5064762;28;20049;-66